Time;durP1;ratioP1;P1;durP2;ratioP2;P2;SDS_P1;SDS_P2;PMS_P1;PMS_P2;Temp;Humidity;BMP_temperature;BMP_pressure;BME280_temperature;BME280_humidity;BME280_pressure;Samples;Min_cycle;Max_cycle;Signal;HPM_P1;HPM_P2
2022/07/26 00:00:08;;;;;;;;;;;;;;;21.11;66.32;100586.88;5032078;28;20285;-83
2022/07/26 00:02:34;;;;;;;;;;;;;;;21.16;65.84;100578.81;5015314;28;19924;-86
2022/07/26 00:05:01;;;;;;;;;;;;;;;21.18;65.58;100584.88;5021661;28;19917;-84
2022/07/26 00:07:27;;;;;;;;;;;;;;;21.19;65.59;100589.31;5032034;28;19924;-84
2022/07/26 00:09:55;;;;;;;;;;;;;;;21.06;66.20;100584.03;5019583;28;19924;-84
2022/07/26 00:12:21;;;;;;;;;;;;;;;21.07;66.24;100591.13;5019999;28;20013;-85
2022/07/26 00:14:46;;;;;;;;;;;;;;;21.06;66.26;100582.13;5030066;28;19992;-84
2022/07/26 00:17:11;;;;;;;;;;;;;;;21.07;65.83;100582.94;5031205;28;20028;-84
2022/07/26 00:19:37;;;;;;;;;;;;;;;21.04;66.09;100581.50;5009879;28;19924;-85
2022/07/26 00:24:50;;;;;;;;;;;;;;;20.92;66.38;100582.53;5032508;28;19928;-83
2022/07/26 00:27:16;;;;;;;;;;;;;;;20.93;66.39;100576.00;5031996;28;19965;-84
2022/07/26 00:29:44;;;;;;;;;;;;;;;20.94;66.41;100570.31;5031498;28;20393;-84
2022/07/26 00:32:12;;;;;;;;;;;;;;;20.92;66.16;100577.91;5032793;28;19913;-84
2022/07/26 00:34:38;;;;;;;;;;;;;;;20.98;65.67;100565.22;5031950;28;19983;-84
2022/07/26 00:37:03;;;;;;;;;;;;;;;20.94;65.74;100573.03;5031860;28;19924;-83
2022/07/26 00:39:30;;;;;;;;;;;;;;;20.96;65.60;100572.81;5015692;28;20280;-84
2022/07/26 00:41:56;;;;;;;;;;;;;;;20.94;65.52;100573.03;5016516;28;19913;-84
2022/07/26 00:44:22;;;;;;;;;;;;;;;20.97;65.51;100574.47;5031635;28;19921;-85
2022/07/26 00:46:49;;;;;;;;;;;;;;;20.85;66.24;100567.06;5032888;28;19917;-84
2022/07/26 00:49:14;;;;;;;;;;;;;;;20.83;66.56;100566.47;5032731;28;19921;-84
2022/07/26 00:51:41;;;;;;;;;;;;;;;20.87;66.68;100559.47;5034577;28;20290;-84
2022/07/26 00:54:08;;;;;;;;;;;;;;;20.84;66.63;100559.94;5036529;28;20032;-84
2022/07/26 00:56:33;;;;;;;;;;;;;;;20.85;66.68;100555.31;5041025;28;19965;-84
2022/07/26 00:58:59;;;;;;;;;;;;;;;20.84;66.55;100561.84;5043689;28;19928;-84
2022/07/26 01:01:25;;;;;;;;;;;;;;;20.72;66.95;100556.34;5042325;28;19975;-85
2022/07/26 01:03:53;;;;;;;;;;;;;;;20.66;66.99;100558.06;5043772;28;19917;-84
2022/07/26 01:06:19;;;;;;;;;;;;;;;20.49;67.39;100548.00;5035775;28;20102;-83
2022/07/26 01:08:50;;;;;;;;;;;;;;;20.38;67.88;100544.94;5028635;28;20472;-82
2022/07/26 01:11:15;;;;;;;;;;;;;;;20.45;67.83;100551.16;5031605;28;19913;-82
2022/07/26 01:13:49;;;;;;;;;;;;;;;20.48;67.34;100554.50;5031170;28;20387;-82
2022/07/26 01:16:15;;;;;;;;;;;;;;;20.55;67.03;100556.06;5031626;28;19921;-83
2022/07/26 01:18:44;;;;;;;;;;;;;;;20.54;67.04;100554.41;5030942;28;20473;-83
2022/07/26 01:21:11;;;;;;;;;;;;;;;20.53;67.34;100547.28;5031604;28;19909;-84
2022/07/26 01:23:42;;;;;;;;;;;;;;;20.54;67.30;100548.97;5029874;28;19922;-82
2022/07/26 01:26:10;;;;;;;;;;;;;;;20.59;67.39;100545.56;5004145;28;19917;-83
2022/07/26 01:28:36;;;;;;;;;;;;;;;20.56;67.21;100540.56;5022420;28;19948;-83
2022/07/26 01:31:02;;;;;;;;;;;;;;;20.54;67.67;100542.66;5028051;28;20362;-83
2022/07/26 01:33:29;;;;;;;;;;;;;;;20.56;67.40;100535.94;5005454;28;19913;-83
2022/07/26 01:35:56;;;;;;;;;;;;;;;20.53;67.57;100536.34;5029339;28;19924;-84
2022/07/26 01:38:23;;;;;;;;;;;;;;;20.53;67.71;100540.97;5031304;28;20016;-83
2022/07/26 01:40:48;;;;;;;;;;;;;;;20.55;67.55;100538.84;5013241;28;19997;-83
2022/07/26 01:43:14;;;;;;;;;;;;;;;20.55;67.64;100538.84;5030046;28;19939;-84
2022/07/26 01:45:39;;;;;;;;;;;;;;;20.42;68.71;100543.44;5030496;28;20019;-84
2022/07/26 01:48:07;;;;;;;;;;;;;;;20.45;68.71;100539.41;5030788;28;19913;-84
2022/07/26 01:50:34;;;;;;;;;;;;;;;20.46;68.94;100543.78;5010333;28;19917;-83
2022/07/26 01:53:00;;;;;;;;;;;;;;;20.44;69.56;100538.59;5029292;28;19913;-84
2022/07/26 01:55:25;;;;;;;;;;;;;;;20.44;69.67;100535.84;5031226;28;19913;-82
2022/07/26 01:57:53;;;;;;;;;;;;;;;20.41;69.70;100532.72;5029316;28;19967;-85
2022/07/26 02:00:19;;;;;;;;;;;;;;;20.32;70.58;100540.41;5026799;28;20008;-82
2022/07/26 02:02:47;;;;;;;;;;;;;;;20.27;71.18;100532.06;5023577;28;19945;-84
2022/07/26 02:05:12;;;;;;;;;;;;;;;20.27;71.48;100540.25;5022737;28;19921;-83
2022/07/26 02:07:40;;;;;;;;;;;;;;;20.20;71.46;100536.75;5030617;28;19913;-82
2022/07/26 02:10:06;;;;;;;;;;;;;;;20.11;72.10;100535.38;5031326;28;19917;-84
2022/07/26 02:12:31;;;;;;;;;;;;;;;20.05;72.20;100542.59;5013548;28;20523;-84
2022/07/26 02:14:57;;;;;;;;;;;;;;;20.12;71.84;100542.53;5023640;28;20020;-84
2022/07/26 02:17:22;;;;;;;;;;;;;;;20.10;71.73;100536.47;5029851;28;19921;-83
2022/07/26 02:19:51;;;;;;;;;;;;;;;19.96;72.28;100542.06;5031603;28;19917;-82
2022/07/26 02:22:18;;;;;;;;;;;;;;;20.00;71.55;100537.00;5029958;28;19920;-84
2022/07/26 02:24:44;;;;;;;;;;;;;;;20.01;71.46;100527.72;5030868;28;20011;-84
2022/07/26 02:27:10;;;;;;;;;;;;;;;20.03;71.24;100536.53;5030125;28;20377;-83
2022/07/26 02:29:37;;;;;;;;;;;;;;;19.97;71.14;100527.38;5021858;28;19971;-84
2022/07/26 02:32:02;;;;;;;;;;;;;;;19.97;71.23;100526.50;5028209;28;19914;-85
2022/07/26 02:34:29;;;;;;;;;;;;;;;19.97;71.09;100529.25;5026410;28;19991;-84
2022/07/26 02:36:55;;;;;;;;;;;;;;;19.97;71.21;100529.25;5029844;28;19923;-83
2022/07/26 02:39:21;;;;;;;;;;;;;;;19.94;71.37;100525.06;5029976;28;20016;-84
2022/07/26 02:41:46;;;;;;;;;;;;;;;20.01;70.78;100525.84;5028382;28;19913;-85
2022/07/26 02:44:14;;;;;;;;;;;;;;;20.00;71.07;100531.53;5010667;28;19928;-86
2022/07/26 02:46:43;;;;;;;;;;;;;;;20.02;70.90;100524.78;5030485;28;20004;-85
2022/07/26 02:49:09;;;;;;;;;;;;;;;20.04;70.62;100524.53;5011464;28;19918;-84
2022/07/26 02:51:34;;;;;;;;;;;;;;;20.00;70.61;100535.09;5012571;28;19913;-85
2022/07/26 02:54:00;;;;;;;;;;;;;;;19.97;70.89;100535.56;5007182;28;19917;-85
2022/07/26 02:56:26;;;;;;;;;;;;;;;19.87;71.01;100535.22;5030353;28;19917;-85
2022/07/26 02:58:51;;;;;;;;;;;;;;;19.91;71.23;100530.16;5028863;28;19917;-83
2022/07/26 03:01:16;;;;;;;;;;;;;;;19.86;71.69;100535.47;5029991;28;19927;-84
2022/07/26 03:03:41;;;;;;;;;;;;;;;19.78;72.42;100531.09;5026186;28;19929;-84
2022/07/26 03:06:08;;;;;;;;;;;;;;;19.77;72.54;100530.28;5028964;28;19964;-84
2022/07/26 03:08:34;;;;;;;;;;;;;;;19.85;72.22;100533.78;5048124;28;20354;-86
2022/07/26 03:11:00;;;;;;;;;;;;;;;19.94;72.25;100533.25;5035471;28;19952;-84
2022/07/26 03:13:25;;;;;;;;;;;;;;;19.78;73.11;100531.97;5034114;28;19925;-83
2022/07/26 03:15:50;;;;;;;;;;;;;;;19.84;73.33;100534.84;5045390;28;19913;-83
2022/07/26 03:18:18;;;;;;;;;;;;;;;19.82;73.23;100535.88;5039224;28;19929;-84
2022/07/26 03:20:43;;;;;;;;;;;;;;;19.90;72.99;100537.50;5032309;28;19999;-85
2022/07/26 03:23:09;;;;;;;;;;;;;;;19.85;72.94;100529.16;5033830;28;19968;-85
2022/07/26 03:25:35;;;;;;;;;;;;;;;19.85;73.45;100540.06;5032219;28;20486;-84
2022/07/26 03:28:02;;;;;;;;;;;;;;;19.91;73.40;100544.63;5015340;28;19932;-83
2022/07/26 03:30:32;;;;;;;;;;;;;;;19.89;73.79;100530.38;5032345;28;19921;-84
2022/07/26 03:32:58;;;;;;;;;;;;;;;20.00;73.61;100543.28;5016511;28;20029;-84
2022/07/26 03:35:24;;;;;;;;;;;;;;;19.92;74.14;100546.28;5031585;28;20432;-85
2022/07/26 03:37:50;;;;;;;;;;;;;;;20.07;73.75;100542.38;5031601;28;20012;-86
2022/07/26 03:40:16;;;;;;;;;;;;;;;20.14;73.61;100545.88;5033250;28;19967;-86
2022/07/26 03:42:43;;;;;;;;;;;;;;;20.18;73.50;100545.19;5032649;28;19913;-86
2022/07/26 03:45:11;;;;;;;;;;;;;;;20.18;73.79;100544.34;5027501;28;19924;-84
2022/07/26 03:47:38;;;;;;;;;;;;;;;20.35;73.12;100545.41;5032436;28;19921;-84
2022/07/26 03:50:04;;;;;;;;;;;;;;;20.32;73.11;100540.41;5030074;28;19917;-86
2022/07/26 03:52:30;;;;;;;;;;;;;;;20.44;72.75;100541.31;5031464;28;19928;-82
2022/07/26 03:54:56;;;;;;;;;;;;;;;20.37;72.80;100537.84;5033790;28;19919;-84
2022/07/26 03:57:21;;;;;;;;;;;;;;;20.40;72.64;100542.81;5032158;28;20004;-83
2022/07/26 03:59:51;;;;;;;;;;;;;;;20.53;72.30;100540.97;5031356;28;19960;-83
2022/07/26 04:02:17;;;;;;;;;;;;;;;20.63;71.98;100544.06;5032710;28;19909;-82
2022/07/26 04:04:43;;;;;;;;;;;;;;;20.70;71.55;100547.53;5031473;28;19928;-83
2022/07/26 04:07:08;;;;;;;;;;;;;;;20.75;71.24;100533.19;5032771;28;19917;-83
2022/07/26 04:09:34;;;;;;;;;;;;;;;20.77;71.10;100531.88;5027097;28;20328;-83
2022/07/26 04:12:00;;;;;;;;;;;;;;;20.87;70.61;100543.06;5032487;28;20374;-83
2022/07/26 04:14:28;;;;;;;;;;;;;;;20.90;70.37;100532.75;5031366;28;19913;-81
2022/07/26 04:16:53;;;;;;;;;;;;;;;20.94;70.37;100533.97;5033016;28;19913;-82
2022/07/26 04:19:19;;;;;;;;;;;;;;;21.10;69.80;100535.22;5032025;28;20012;-80
2022/07/26 04:21:48;;;;;;;;;;;;;;;21.19;69.43;100533.78;5014382;28;19949;-83
2022/07/26 04:24:14;;;;;;;;;;;;;;;21.31;69.04;100531.91;5033341;28;19952;-85
2022/07/26 04:26:39;;;;;;;;;;;;;;;21.25;69.00;100527.38;5031157;28;19917;-82
2022/07/26 04:29:04;;;;;;;;;;;;;;;21.18;69.03;100537.59;5022384;28;19917;-83
2022/07/26 04:31:30;;;;;;;;;;;;;;;21.27;68.93;100531.53;5030586;28;19925;-84
2022/07/26 04:33:58;;;;;;;;;;;;;;;21.38;68.79;100532.66;5030926;28;19971;-87
2022/07/26 04:36:24;;;;;;;;;;;;;;;21.54;68.25;100531.16;5034603;28;19936;-85
2022/07/26 04:38:51;;;;;;;;;;;;;;;21.76;67.79;100534.13;5030144;28;20337;-79
2022/07/26 04:41:18;;;;;;;;;;;;;;;22.00;67.34;100540.41;5034732;28;19913;-80
2022/07/26 04:43:43;;;;;;;;;;;;;;;22.22;66.29;100532.44;5030336;28;19917;-82
2022/07/26 04:46:09;;;;;;;;;;;;;;;22.63;65.70;100537.94;5012888;28;19940;-83
2022/07/26 04:48:38;;;;;;;;;;;;;;;23.01;64.33;100536.47;5026987;28;19918;-82
2022/07/26 04:51:06;;;;;;;;;;;;;;;23.25;63.26;100528.94;5030350;28;19913;-84
2022/07/26 04:53:31;;;;;;;;;;;;;;;23.49;62.00;100541.44;5033750;28;19979;-82
2022/07/26 04:55:57;;;;;;;;;;;;;;;23.80;61.16;100533.72;5029909;28;20039;-82
2022/07/26 04:58:24;;;;;;;;;;;;;;;23.90;60.30;100541.25;5028415;28;20294;-83
2022/07/26 05:00:49;;;;;;;;;;;;;;;24.10;59.63;100530.56;5023874;28;19921;-82
2022/07/26 05:03:16;;;;;;;;;;;;;;;24.33;59.06;100535.00;5006184;28;19944;-84
2022/07/26 05:05:42;;;;;;;;;;;;;;;24.56;57.69;100531.19;5033856;28;19917;-86
2022/07/26 05:08:09;;;;;;;;;;;;;;;24.74;57.11;100532.75;5038124;28;19917;-89
2022/07/26 05:10:35;;;;;;;;;;;;;;;25.05;56.73;100533.91;5046934;28;19975;-84
2022/07/26 05:13:02;;;;;;;;;;;;;;;25.18;55.90;100532.69;5014056;28;20340;-84
2022/07/26 05:15:35;;;;;;;;;;;;;;;25.41;55.21;100527.94;5031161;28;19917;-83
2022/07/26 05:18:08;;;;;;;;;;;;;;;25.49;54.55;100530.19;5030492;28;19932;-84
2022/07/26 05:20:34;;;;;;;;;;;;;;;25.59;53.94;100538.53;5030443;28;20016;-84
2022/07/26 05:22:59;;;;;;;;;;;;;;;25.83;53.18;100536.22;5030229;28;19913;-84
2022/07/26 05:25:26;;;;;;;;;;;;;;;25.92;52.43;100527.47;5032538;28;19923;-83
2022/07/26 05:27:51;;;;;;;;;;;;;;;25.89;52.53;100526.94;5026223;28;19987;-85
2022/07/26 05:30:17;;;;;;;;;;;;;;;26.06;51.72;100523.16;5010913;28;20341;-85
2022/07/26 05:32:43;;;;;;;;;;;;;;;26.25;51.15;100526.28;5034149;28;19917;-84
2022/07/26 05:35:09;;;;;;;;;;;;;;;26.40;50.77;100523.59;5033716;28;20370;-89
2022/07/26 05:37:34;;;;;;;;;;;;;;;26.59;50.41;100517.63;5035091;28;19924;-86
2022/07/26 05:40:02;;;;;;;;;;;;;;;26.69;49.64;100521.25;5030550;28;19975;-88
2022/07/26 05:42:29;;;;;;;;;;;;;;;26.94;49.64;100530.66;5035461;28;19921;-88
2022/07/26 05:44:56;;;;;;;;;;;;;;;27.19;49.19;100527.09;5036098;28;19928;-87
2022/07/26 05:47:21;;;;;;;;;;;;;;;27.36;48.35;100529.63;5034154;28;19920;-88
2022/07/26 05:49:50;;;;;;;;;;;;;;;27.58;48.17;100532.09;5037931;28;19932;-88
2022/07/26 05:52:16;;;;;;;;;;;;;;;27.61;48.34;100525.19;5035959;28;19914;-89
2022/07/26 05:54:42;;;;;;;;;;;;;;;27.83;47.85;100531.25;5031663;28;19929;-88
2022/07/26 05:57:08;;;;;;;;;;;;;;;28.00;47.13;100519.88;5032628;28;19925;-84
2022/07/26 05:59:34;;;;;;;;;;;;;;;28.29;46.51;100520.06;5046819;28;20282;-88
2022/07/26 06:02:01;;;;;;;;;;;;;;;28.48;45.49;100527.78;5041738;28;19913;-88
2022/07/26 06:04:27;;;;;;;;;;;;;;;28.70;44.61;100519.88;5040255;28;19928;-90
2022/07/26 06:06:53;;;;;;;;;;;;;;;29.00;44.03;100518.06;5043986;28;19944;-88
2022/07/26 06:09:18;;;;;;;;;;;;;;;29.21;44.36;100524.28;5021963;28;19936;-86
2022/07/26 06:11:44;;;;;;;;;;;;;;;29.38;44.38;100516.38;5049924;28;20007;-83
2022/07/26 06:14:09;;;;;;;;;;;;;;;29.59;43.43;100519.78;5032510;28;19913;-82
2022/07/26 06:16:37;;;;;;;;;;;;;;;29.69;43.33;100523.63;5029837;28;19942;-85
2022/07/26 06:19:03;;;;;;;;;;;;;;;29.76;43.01;100518.56;5036951;28;19920;-89
2022/07/26 06:21:28;;;;;;;;;;;;;;;29.83;42.47;100519.88;5049563;28;20361;-85
2022/07/26 06:23:53;;;;;;;;;;;;;;;30.18;42.00;100514.22;5025769;28;19924;-87
2022/07/26 06:26:19;;;;;;;;;;;;;;;30.39;41.43;100507.34;5033922;28;20361;-86
2022/07/26 06:28:45;;;;;;;;;;;;;;;30.57;40.77;100496.53;5030716;28;19917;-86
2022/07/26 06:31:12;;;;;;;;;;;;;;;30.72;40.86;100496.34;5029768;28;19924;-84
2022/07/26 06:33:43;;;;;;;;;;;;;;;30.95;39.89;100500.16;5028759;28;19917;-86
2022/07/26 06:36:09;;;;;;;;;;;;;;;31.05;40.50;100504.75;5030165;28;19913;-84
2022/07/26 06:38:35;;;;;;;;;;;;;;;31.03;39.70;100512.56;5026702;28;19968;-84
2022/07/26 06:41:00;;;;;;;;;;;;;;;31.45;38.47;100508.00;5014704;28;20377;-84
2022/07/26 06:43:25;;;;;;;;;;;;;;;31.48;37.71;100505.41;5031823;28;20545;-85
2022/07/26 06:45:52;;;;;;;;;;;;;;;31.68;36.60;100507.03;5013737;28;19937;-83
2022/07/26 06:48:18;;;;;;;;;;;;;;;31.86;36.67;100507.22;5035749;28;19913;-87
2022/07/26 06:50:44;;;;;;;;;;;;;;;32.02;36.07;100507.78;5035705;28;19917;-84
2022/07/26 06:53:09;;;;;;;;;;;;;;;32.30;35.69;100501.06;5031852;28;19920;-84
2022/07/26 06:55:34;;;;;;;;;;;;;;;32.52;35.01;100507.88;5051005;28;19918;-83
2022/07/26 06:58:01;;;;;;;;;;;;;;;32.77;34.43;100504.50;5022135;28;19918;-79
2022/07/26 07:00:27;;;;;;;;;;;;;;;32.89;35.21;100503.94;5029841;28;19944;-81
2022/07/26 07:02:52;;;;;;;;;;;;;;;33.20;34.87;100506.03;5041299;28;19913;-86
2022/07/26 07:05:18;;;;;;;;;;;;;;;33.50;34.31;100503.59;5042121;28;19971;-85
2022/07/26 07:07:46;;;;;;;;;;;;;;;33.75;33.14;100507.69;5045085;28;19913;-91
2022/07/26 07:10:13;;;;;;;;;;;;;;;33.97;33.37;100496.47;5047591;28;19966;-90
2022/07/26 07:12:43;;;;;;;;;;;;;;;34.00;32.64;100497.81;5047704;28;19921;-91
2022/07/26 07:15:12;;;;;;;;;;;;;;;34.28;31.85;100500.34;5036170;28;20379;-90
2022/07/26 07:17:38;;;;;;;;;;;;;;;34.45;31.59;100503.19;5046169;28;19921;-91
2022/07/26 07:20:04;;;;;;;;;;;;;;;34.42;31.88;100506.66;5046901;28;19920;-90
2022/07/26 07:22:30;;;;;;;;;;;;;;;34.74;30.68;100496.19;5048726;28;19909;-89
2022/07/26 07:24:55;;;;;;;;;;;;;;;35.04;31.31;100495.19;5052584;28;19944;-87
2022/07/26 07:27:21;;;;;;;;;;;;;;;35.23;30.23;100491.25;5047695;28;19924;-83
2022/07/26 07:29:47;;;;;;;;;;;;;;;35.35;30.28;100494.19;5047678;28;19986;-90
2022/07/26 07:32:13;;;;;;;;;;;;;;;35.56;28.93;100497.09;5046519;28;19921;-90
2022/07/26 07:34:41;;;;;;;;;;;;;;;35.66;28.86;100498.72;5046647;28;20011;-91
2022/07/26 07:37:11;;;;;;;;;;;;;;;35.81;29.20;100501.00;5048441;28;19909;-88
2022/07/26 07:39:39;;;;;;;;;;;;;;;35.86;28.89;100502.78;5047823;28;19917;-90
2022/07/26 07:42:04;;;;;;;;;;;;;;;36.08;28.62;100498.88;5047892;28;19944;-88
2022/07/26 07:44:29;;;;;;;;;;;;;;;36.27;28.85;100490.06;5047262;28;19928;-95
2022/07/26 07:46:58;;;;;;;;;;;;;;;35.57;32.09;100500.72;5064479;28;19913;-88
2022/07/26 07:49:27;;;;;;;;;;;;;;;35.53;32.93;100506.16;5040797;28;19917;-89
2022/07/26 07:51:55;;;;;;;;;;;;;;;35.59;32.90;100499.25;5048428;28;19914;-90
2022/07/26 07:54:20;;;;;;;;;;;;;;;35.51;33.32;100492.50;5042174;28;19913;-89
2022/07/26 07:56:45;;;;;;;;;;;;;;;35.30;33.73;100500.78;5045125;28;19943;-89
2022/07/26 07:59:12;;;;;;;;;;;;;;;35.08;33.48;100501.78;5046703;28;19928;-89
2022/07/26 08:01:37;;;;;;;;;;;;;;;34.76;35.01;100499.47;5047481;28;19920;-89
2022/07/26 08:04:03;;;;;;;;;;;;;;;34.90;34.11;100500.13;5047645;28;20337;-87
2022/07/26 08:06:29;;;;;;;;;;;;;;;35.35;33.69;100487.78;5048287;28;19912;-88
2022/07/26 08:08:55;;;;;;;;;;;;;;;35.55;33.57;100497.44;5054969;28;20000;-85
2022/07/26 08:11:21;;;;;;;;;;;;;;;35.03;33.37;100501.13;5052943;28;19917;-89
2022/07/26 08:13:47;;;;;;;;;;;;;;;34.93;34.82;100498.66;5047191;28;19917;-86
2022/07/26 08:16:12;;;;;;;;;;;;;;;34.76;35.87;100493.91;5046880;28;19940;-89
2022/07/26 08:18:37;;;;;;;;;;;;;;;35.17;35.44;100492.56;5047806;28;20293;-90
2022/07/26 08:21:02;;;;;;;;;;;;;;;35.12;36.49;100495.53;5049504;28;19924;-84
2022/07/26 08:23:28;;;;;;;;;;;;;;;35.02;37.63;100497.50;5046616;28;20308;-89
2022/07/26 08:25:57;;;;;;;;;;;;;;;35.05;33.96;100496.00;5047346;28;19913;-89
2022/07/26 08:28:23;;;;;;;;;;;;;;;34.90;34.23;100491.75;5045685;28;19921;-88
2022/07/26 08:30:48;;;;;;;;;;;;;;;35.30;34.26;100488.78;5047862;28;19924;-88
2022/07/26 08:33:14;;;;;;;;;;;;;;;35.62;33.89;100497.78;5047857;28;19917;-90
2022/07/26 08:35:41;;;;;;;;;;;;;;;35.35;34.07;100499.78;5029642;28;19913;-89
2022/07/26 08:38:06;;;;;;;;;;;;;;;35.34;35.20;100491.75;5045347;28;19932;-88
2022/07/26 08:40:33;;;;;;;;;;;;;;;35.56;34.81;100499.06;5047288;28;19917;-89
2022/07/26 08:43:01;;;;;;;;;;;;;;;36.18;34.92;100504.13;5046336;28;19955;-89
2022/07/26 08:45:27;;;;;;;;;;;;;;;35.39;35.30;100500.75;5045254;28;19917;-89
2022/07/26 08:47:52;;;;;;;;;;;;;;;35.30;34.71;100494.38;5046108;28;19917;-87
2022/07/26 08:50:18;;;;;;;;;;;;;;;35.03;35.68;100499.16;5045623;28;19974;-88
2022/07/26 08:52:43;;;;;;;;;;;;;;;35.48;34.71;100504.34;5027743;28;19917;-89
2022/07/26 08:55:09;;;;;;;;;;;;;;;36.07;34.06;100500.88;5044307;28;19913;-89
2022/07/26 08:57:36;;;;;;;;;;;;;;;35.74;34.39;100497.91;5046675;28;20003;-87
2022/07/26 09:00:13;;;;;;;;;;;;;;;35.62;33.75;100503.38;5045828;28;19913;-88
2022/07/26 09:02:39;;;;;;;;;;;;;;;36.00;33.05;100488.56;5045709;28;19916;-87
2022/07/26 09:05:05;;;;;;;;;;;;;;;36.24;32.90;100496.34;5039254;28;19928;-88
2022/07/26 09:07:32;;;;;;;;;;;;;;;37.50;31.36;100485.94;5049094;28;19978;-87
2022/07/26 09:09:59;;;;;;;;;;;;;;;37.49;30.22;100489.09;5048912;28;19917;-86
2022/07/26 09:12:24;;;;;;;;;;;;;;;37.31;31.06;100494.06;5040041;28;20316;-88
2022/07/26 09:14:52;;;;;;;;;;;;;;;37.37;30.27;100487.09;5051021;28;20055;-86
2022/07/26 09:17:20;;;;;;;;;;;;;;;38.45;29.06;100480.25;5045268;28;19909;-87
2022/07/26 09:20:08;;;;;;;;;;;;;;;38.07;30.58;100487.06;5022939;28;19984;-87
2022/07/26 09:22:34;;;;;;;;;;;;;;;37.98;30.48;100484.38;5034190;28;19972;-89
2022/07/26 09:25:03;;;;;;;;;;;;;;;37.50;30.22;100485.94;5044234;28;19948;-87
2022/07/26 09:27:37;;;;;;;;;;;;;;;37.77;30.93;100478.88;5044905;28;19909;-85
2022/07/26 09:30:08;;;;;;;;;;;;;;;38.77;29.16;100483.22;5025030;28;19949;-86
2022/07/26 09:32:35;;;;;;;;;;;;;;;39.21;28.26;100478.50;5051103;28;19921;-88
2022/07/26 09:35:10;;;;;;;;;;;;;;;40.50;25.62;100486.56;5049274;28;19974;-87
2022/07/26 09:37:42;;;;;;;;;;;;;;;39.94;25.96;100489.66;5036758;28;19957;-89
2022/07/26 09:40:10;;;;;;;;;;;;;;;39.82;26.41;100482.13;5041798;28;19949;-87
2022/07/26 09:42:35;;;;;;;;;;;;;;;40.72;25.63;100483.06;5044772;28;20010;-89
2022/07/26 09:45:01;;;;;;;;;;;;;;;40.77;25.31;100481.97;5043419;28;19982;-91
2022/07/26 09:47:42;;;;;;;;;;;;;;;40.47;26.64;100476.88;5044438;28;19917;-88
2022/07/26 09:50:15;;;;;;;;;;;;;;;39.94;26.64;100475.59;5045654;28;19917;-87
2022/07/26 09:53:01;;;;;;;;;;;;;;;40.15;26.37;100470.47;5043014;28;19967;-87
2022/07/26 09:55:27;;;;;;;;;;;;;;;39.40;27.73;100475.00;5029296;28;19921;-89
2022/07/26 09:57:52;;;;;;;;;;;;;;;40.09;26.95;100474.75;5044907;28;20000;-87
2022/07/26 10:00:18;;;;;;;;;;;;;;;39.41;28.07;100467.41;5016663;28;20364;-88
2022/07/26 10:02:44;;;;;;;;;;;;;;;39.34;28.62;100478.44;5045535;28;20408;-89
2022/07/26 10:05:09;;;;;;;;;;;;;;;39.37;28.62;100467.31;5059207;28;20024;-90
2022/07/26 10:07:37;;;;;;;;;;;;;;;40.56;27.19;100473.03;5042848;28;19922;-92
2022/07/26 10:10:03;;;;;;;;;;;;;;;40.42;27.19;100468.72;5044362;28;19924;-89
2022/07/26 10:12:31;;;;;;;;;;;;;;;40.01;27.49;100470.13;5043130;28;19916;-87
2022/07/26 10:14:57;;;;;;;;;;;;;;;39.73;26.31;100462.59;5039506;28;19912;-86
2022/07/26 10:17:28;;;;;;;;;;;;;;;39.84;27.13;100466.53;5041837;28;19917;-86
2022/07/26 10:19:57;;;;;;;;;;;;;;;40.55;26.78;100463.75;5042027;28;19917;-85
2022/07/26 10:22:30;;;;;;;;;;;;;;;40.21;26.67;100456.94;5039953;28;19924;-87
2022/07/26 10:24:57;;;;;;;;;;;;;;;39.80;26.84;100459.94;5038237;28;19917;-87
2022/07/26 10:27:36;;;;;;;;;;;;;;;40.06;27.27;100456.63;5018670;28;20401;-87
2022/07/26 10:30:19;;;;;;;;;;;;;;;39.93;27.33;100462.72;5043393;28;19917;-88
2022/07/26 10:32:56;;;;;;;;;;;;;;;40.69;25.79;100446.34;5043580;28;19924;-87
2022/07/26 10:35:43;;;;;;;;;;;;;;;40.56;26.49;100444.88;5042274;28;19921;-87
2022/07/26 10:38:10;;;;;;;;;;;;;;;41.17;25.86;100435.66;5044988;28;19920;-87
2022/07/26 10:40:37;;;;;;;;;;;;;;;41.11;26.78;100439.94;5026893;28;20019;-87
2022/07/26 10:43:06;;;;;;;;;;;;;;;41.19;26.28;100438.91;5045738;28;19988;-88
2022/07/26 10:45:41;;;;;;;;;;;;;;;39.98;27.74;100439.91;5045020;28;19917;-88
2022/07/26 10:48:13;;;;;;;;;;;;;;;39.19;28.10;100435.88;5044526;28;19913;-89
2022/07/26 10:50:40;;;;;;;;;;;;;;;38.90;27.81;100428.63;5044348;28;19917;-86
2022/07/26 10:53:07;;;;;;;;;;;;;;;38.21;29.75;100433.38;5043001;28;19920;-88
2022/07/26 10:55:44;;;;;;;;;;;;;;;38.84;29.83;100425.28;5026277;28;20095;-89
2022/07/26 10:58:13;;;;;;;;;;;;;;;38.29;30.51;100426.03;5043833;28;20013;-89
2022/07/26 11:00:38;;;;;;;;;;;;;;;37.56;31.46;100419.28;5044020;28;19917;-90
2022/07/26 11:03:06;;;;;;;;;;;;;;;37.42;31.79;100416.78;5043043;28;20003;-88
2022/07/26 11:05:33;;;;;;;;;;;;;;;36.35;33.17;100422.84;5044175;28;19975;-88
2022/07/26 11:08:09;;;;;;;;;;;;;;;35.56;34.18;100426.41;5043188;28;19971;-89
2022/07/26 11:10:46;;;;;;;;;;;;;;;35.75;33.44;100426.81;5028377;28;19917;-90
2022/07/26 11:13:14;;;;;;;;;;;;;;;35.64;33.19;100420.00;5051797;28;19924;-85
2022/07/26 11:15:45;;;;;;;;;;;;;;;35.00;33.58;100415.19;5052675;28;19969;-87
2022/07/26 11:18:21;;;;;;;;;;;;;;;34.17;33.92;100411.41;5033947;28;19916;-87
2022/07/26 11:20:48;;;;;;;;;;;;;;;33.39;35.50;100414.72;5031646;28;19917;-87
2022/07/26 11:23:24;;;;;;;;;;;;;;;33.51;36.74;100407.72;5044301;28;19933;-91
2022/07/26 11:26:05;;;;;;;;;;;;;;;33.49;37.16;100410.81;5046270;28;19974;-89
2022/07/26 11:28:45;;;;;;;;;;;;;;;33.90;35.37;100403.28;5043820;28;20377;-90
2022/07/26 11:31:11;;;;;;;;;;;;;;;33.32;36.47;100406.00;5038177;28;19917;-89
2022/07/26 11:33:44;;;;;;;;;;;;;;;33.61;36.37;100399.09;5041691;28;19917;-88
2022/07/26 11:36:13;;;;;;;;;;;;;;;33.26;36.37;100387.78;5047335;28;19920;-90
2022/07/26 11:38:48;;;;;;;;;;;;;;;33.54;36.18;100401.50;5045661;28;19917;-89
2022/07/26 11:41:17;;;;;;;;;;;;;;;32.90;36.74;100394.25;5048235;28;19977;-90
2022/07/26 11:43:43;;;;;;;;;;;;;;;33.12;36.86;100382.28;5044098;28;19921;-89
2022/07/26 11:46:09;;;;;;;;;;;;;;;32.96;36.90;100389.38;5044718;28;19925;-89
2022/07/26 11:48:34;;;;;;;;;;;;;;;32.33;38.37;100380.84;5043773;28;19924;-89
2022/07/26 11:51:12;;;;;;;;;;;;;;;32.20;38.09;100378.13;5044258;28;20029;-89
2022/07/26 11:53:38;;;;;;;;;;;;;;;31.77;38.92;100384.84;5046127;28;19980;-89
2022/07/26 11:56:22;;;;;;;;;;;;;;;31.45;39.98;100381.03;5047492;28;19913;-89
2022/07/26 11:58:48;;;;;;;;;;;;;;;31.55;39.57;100380.00;5046369;28;19959;-88
2022/07/26 12:01:15;;;;;;;;;;;;;;;31.37;40.28;100383.66;5046171;28;19917;-91
2022/07/26 12:03:42;;;;;;;;;;;;;;;31.58;39.51;100379.38;5043121;28;20289;-92
2022/07/26 12:06:11;;;;;;;;;;;;;;;31.38;39.73;100369.50;5027460;28;19998;-89
2022/07/26 12:08:47;;;;;;;;;;;;;;;31.62;39.08;100377.66;5047207;28;19917;-91
2022/07/26 12:11:15;;;;;;;;;;;;;;;31.64;38.99;100361.50;5047003;28;19924;-89
2022/07/26 12:13:48;;;;;;;;;;;;;;;31.71;37.80;100367.44;5045575;28;20221;-91
2022/07/26 12:16:32;;;;;;;;;;;;;;;31.85;38.22;100359.09;5048862;28;20016;-90
2022/07/26 12:18:57;;;;;;;;;;;;;;;31.89;38.70;100367.63;5045914;28;19921;-89
2022/07/26 12:21:35;;;;;;;;;;;;;;;31.54;39.20;100361.72;5048983;28;20491;-87
2022/07/26 12:24:03;;;;;;;;;;;;;;;30.99;39.92;100356.88;5047726;28;19916;-92
2022/07/26 12:26:29;;;;;;;;;;;;;;;31.17;40.08;100357.94;5052354;28;19924;-89
2022/07/26 12:28:55;;;;;;;;;;;;;;;31.36;39.51;100340.38;5032135;28;19917;-91
2022/07/26 12:31:23;;;;;;;;;;;;;;;30.95;39.89;100347.50;5046169;28;20030;-90
2022/07/26 12:33:50;;;;;;;;;;;;;;;31.15;39.57;100353.84;5045672;28;19917;-89
2022/07/26 12:36:16;;;;;;;;;;;;;;;31.22;39.78;100352.28;5043628;28;19913;-85
2022/07/26 12:38:42;;;;;;;;;;;;;;;31.19;40.21;100346.50;5039858;28;19932;-87